Rossford, Ohio
Current Conditions -  °F | °C
As of 4:53 PM on Sunday 23 Nov 2014 (Local Time) from KTDZ Reporting Station
Overcast Overcast  
Wind Chill: 56°   Ceiling: 7000
Heat Index: 56°   Visibility: 10mi
Dew Point: 45°   Wind: 10mph
Humidity: 67%   Direction: 120°ESE
Pressure: 29.64"   Gusts: NA
Location:  41.61°N, 83.56°W
Report Text: KTDZ 232153Z AUTO 12009KT 10SM FEW050 OVC070 13/07 A2964 RMK AO2 SLP038 T01330072 TSNO
Loading
Personal Weather Stations






























Interactive Weather Map New forecast layout! Learn more

10-Day Weather Forecast

Advertisements
Track Severe Weather on mobile